sensor_id;sensor_type;location;lat;lon;timestamp;temperature;humidity
20068;DHT22;10194;50.824;7.134;2023-08-06T00:00:25;15.10;99.90
20068;DHT22;10194;50.824;7.134;2023-08-06T00:02:51;15.10;99.90
20068;DHT22;10194;50.824;7.134;2023-08-06T00:05:20;15.00;99.90
20068;DHT22;10194;50.824;7.134;2023-08-06T00:07:57;15.00;99.90
20068;DHT22;10194;50.824;7.134;2023-08-06T00:10:23;15.00;99.90
20068;DHT22;10194;50.824;7.134;2023-08-06T00:12:58;15.00;99.90
20068;DHT22;10194;50.824;7.134;2023-08-06T00:15:27;15.00;99.90
20068;DHT22;10194;50.824;7.134;2023-08-06T00:17:53;15.00;99.90
20068;DHT22;10194;50.824;7.134;2023-08-06T00:20:19;15.00;99.90
20068;DHT22;10194;50.824;7.134;2023-08-06T00:22:54;15.00;99.90
20068;DHT22;10194;50.824;7.134;2023-08-06T00:25:28;15.00;99.90
20068;DHT22;10194;50.824;7.134;2023-08-06T00:27:54;15.00;99.90
20068;DHT22;10194;50.824;7.134;2023-08-06T00:30:21;15.10;99.90
20068;DHT22;10194;50.824;7.134;2023-08-06T00:32:48;15.00;99.90
20068;DHT22;10194;50.824;7.134;2023-08-06T00:35:15;15.00;99.90
20068;DHT22;10194;50.824;7.134;2023-08-06T00:37:43;14.90;99.90
20068;DHT22;10194;50.824;7.134;2023-08-06T00:40:10;14.80;99.90
20068;DHT22;10194;50.824;7.134;2023-08-06T00:42:48;14.80;99.90
20068;DHT22;10194;50.824;7.134;2023-08-06T00:45:14;14.70;99.90
20068;DHT22;10194;50.824;7.134;2023-08-06T00:47:40;14.80;99.90
20068;DHT22;10194;50.824;7.134;2023-08-06T00:50:08;14.80;99.90
20068;DHT22;10194;50.824;7.134;2023-08-06T00:52:34;14.80;99.90
20068;DHT22;10194;50.824;7.134;2023-08-06T00:55:01;14.80;99.90
20068;DHT22;10194;50.824;7.134;2023-08-06T00:57:26;14.80;99.90
20068;DHT22;10194;50.824;7.134;2023-08-06T00:59:53;14.80;99.90
20068;DHT22;10194;50.824;7.134;2023-08-06T01:02:20;14.80;99.90
20068;DHT22;10194;50.824;7.134;2023-08-06T01:04:46;14.80;99.90
20068;DHT22;10194;50.824;7.134;2023-08-06T01:13:45;14.90;99.90
20068;DHT22;10194;50.824;7.134;2023-08-06T01:16:17;14.90;99.90
20068;DHT22;10194;50.824;7.134;2023-08-06T01:18:46;14.90;99.90
20068;DHT22;10194;50.824;7.134;2023-08-06T01:21:19;15.00;99.90
20068;DHT22;10194;50.824;7.134;2023-08-06T01:23:51;15.00;99.90
20068;DHT22;10194;50.824;7.134;2023-08-06T01:26:29;14.90;99.90
20068;DHT22;10194;50.824;7.134;2023-08-06T01:29:06;14.90;99.90
20068;DHT22;10194;50.824;7.134;2023-08-06T01:31:37;15.00;99.90
20068;DHT22;10194;50.824;7.134;2023-08-06T01:34:06;15.00;99.90
20068;DHT22;10194;50.824;7.134;2023-08-06T01:36:34;15.00;99.90
20068;DHT22;10194;50.824;7.134;2023-08-06T01:39:00;15.00;99.90
20068;DHT22;10194;50.824;7.134;2023-08-06T01:41:26;15.00;99.90
20068;DHT22;10194;50.824;7.134;2023-08-06T01:43:51;15.00;99.90
20068;DHT22;10194;50.824;7.134;2023-08-06T01:46:17;15.00;99.90
20068;DHT22;10194;50.824;7.134;2023-08-06T01:48:45;15.00;99.90
20068;DHT22;10194;50.824;7.134;2023-08-06T01:51:11;14.90;99.90
20068;DHT22;10194;50.824;7.134;2023-08-06T01:53:37;14.90;99.90
20068;DHT22;10194;50.824;7.134;2023-08-06T01:56:03;14.90;99.90
20068;DHT22;10194;50.824;7.134;2023-08-06T01:58:28;14.90;99.90
20068;DHT22;10194;50.824;7.134;2023-08-06T02:00:54;14.90;99.90
20068;DHT22;10194;50.824;7.134;2023-08-06T02:03:20;14.90;99.90
20068;DHT22;10194;50.824;7.134;2023-08-06T02:05:46;14.90;99.90
20068;DHT22;10194;50.824;7.134;2023-08-06T02:08:11;14.80;99.90
20068;DHT22;10194;50.824;7.134;2023-08-06T02:10:37;14.90;99.90
20068;DHT22;10194;50.824;7.134;2023-08-06T02:13:03;14.90;99.90
20068;DHT22;10194;50.824;7.134;2023-08-06T02:15:30;14.90;99.90
20068;DHT22;10194;50.824;7.134;2023-08-06T02:17:55;14.80;99.90
20068;DHT22;10194;50.824;7.134;2023-08-06T02:20:21;14.80;99.90
20068;DHT22;10194;50.824;7.134;2023-08-06T02:22:47;14.80;99.90
20068;DHT22;10194;50.824;7.134;2023-08-06T02:25:13;14.80;99.90
20068;DHT22;10194;50.824;7.134;2023-08-06T02:27:39;14.80;99.90
20068;DHT22;10194;50.824;7.134;2023-08-06T02:30:05;14.80;99.90
20068;DHT22;10194;50.824;7.134;2023-08-06T02:32:31;14.80;99.90
20068;DHT22;10194;50.824;7.134;2023-08-06T02:34:58;14.80;99.90
20068;DHT22;10194;50.824;7.134;2023-08-06T02:37:24;14.80;99.90
20068;DHT22;10194;50.824;7.134;2023-08-06T02:39:49;14.90;99.90
20068;DHT22;10194;50.824;7.134;2023-08-06T02:42:15;14.80;99.90
20068;DHT22;10194;50.824;7.134;2023-08-06T02:44:41;14.80;99.90
20068;DHT22;10194;50.824;7.134;2023-08-06T02:47:07;14.80;99.90
20068;DHT22;10194;50.824;7.134;2023-08-06T02:49:32;14.80;99.90
20068;DHT22;10194;50.824;7.134;2023-08-06T02:51:58;14.90;99.90
20068;DHT22;10194;50.824;7.134;2023-08-06T02:54:24;14.90;99.90
20068;DHT22;10194;50.824;7.134;2023-08-06T02:56:50;14.90;99.90
20068;DHT22;10194;50.824;7.134;2023-08-06T02:59:16;14.90;99.90
20068;DHT22;10194;50.824;7.134;2023-08-06T03:01:42;14.90;99.90
20068;DHT22;10194;50.824;7.134;2023-08-06T03:04:07;14.90;99.90
20068;DHT22;10194;50.824;7.134;2023-08-06T03:06:33;14.80;99.90
20068;DHT22;10194;50.824;7.134;2023-08-06T03:08:59;14.80;99.90
20068;DHT22;10194;50.824;7.134;2023-08-06T03:11:24;14.80;99.90
20068;DHT22;10194;50.824;7.134;2023-08-06T03:13:50;14.90;99.90
20068;DHT22;10194;50.824;7.134;2023-08-06T03:16:16;14.80;99.90
20068;DHT22;10194;50.824;7.134;2023-08-06T03:18:42;14.80;99.90
20068;DHT22;10194;50.824;7.134;2023-08-06T03:21:07;14.80;99.90
20068;DHT22;10194;50.824;7.134;2023-08-06T03:23:33;14.80;99.90
20068;DHT22;10194;50.824;7.134;2023-08-06T03:26:03;14.80;99.90
20068;DHT22;10194;50.824;7.134;2023-08-06T03:28:29;14.80;99.90
20068;DHT22;10194;50.824;7.134;2023-08-06T03:31:04;14.80;99.90
20068;DHT22;10194;50.824;7.134;2023-08-06T03:33:30;14.80;99.90
20068;DHT22;10194;50.824;7.134;2023-08-06T03:35:56;14.80;99.90
20068;DHT22;10194;50.824;7.134;2023-08-06T03:38:22;14.80;99.90
20068;DHT22;10194;50.824;7.134;2023-08-06T03:40:48;14.80;99.90
20068;DHT22;10194;50.824;7.134;2023-08-06T03:43:15;14.70;99.90
20068;DHT22;10194;50.824;7.134;2023-08-06T03:45:41;14.70;99.90
20068;DHT22;10194;50.824;7.134;2023-08-06T03:48:07;14.70;99.90
20068;DHT22;10194;50.824;7.134;2023-08-06T03:50:34;14.70;99.90
20068;DHT22;10194;50.824;7.134;2023-08-06T03:53:00;14.70;99.90
20068;DHT22;10194;50.824;7.134;2023-08-06T03:55:26;14.70;99.90
20068;DHT22;10194;50.824;7.134;2023-08-06T03:57:52;14.70;99.90
20068;DHT22;10194;50.824;7.134;2023-08-06T04:00:18;14.70;99.90
20068;DHT22;10194;50.824;7.134;2023-08-06T04:02:44;14.70;99.90
20068;DHT22;10194;50.824;7.134;2023-08-06T04:05:09;14.70;99.90
20068;DHT22;10194;50.824;7.134;2023-08-06T04:07:35;14.70;99.90
20068;DHT22;10194;50.824;7.134;2023-08-06T04:10:03;14.60;99.90
20068;DHT22;10194;50.824;7.134;2023-08-06T04:12:30;14.60;99.90
20068;DHT22;10194;50.824;7.134;2023-08-06T04:14:58;14.60;99.90
20068;DHT22;10194;50.824;7.134;2023-08-06T04:17:24;14.60;99.90
20068;DHT22;10194;50.824;7.134;2023-08-06T04:19:52;14.60;99.90
20068;DHT22;10194;50.824;7.134;2023-08-06T04:22:19;14.60;99.90
20068;DHT22;10194;50.824;7.134;2023-08-06T04:24:45;14.70;99.90
20068;DHT22;10194;50.824;7.134;2023-08-06T04:27:12;14.60;99.90
20068;DHT22;10194;50.824;7.134;2023-08-06T04:29:38;14.60;99.90
20068;DHT22;10194;50.824;7.134;2023-08-06T04:32:07;14.60;99.90
20068;DHT22;10194;50.824;7.134;2023-08-06T04:34:34;14.60;99.90
20068;DHT22;10194;50.824;7.134;2023-08-06T04:37:01;14.70;99.90
20068;DHT22;10194;50.824;7.134;2023-08-06T04:39:27;14.60;99.90
20068;DHT22;10194;50.824;7.134;2023-08-06T04:41:53;14.60;99.90
20068;DHT22;10194;50.824;7.134;2023-08-06T04:44:19;14.60;99.90
20068;DHT22;10194;50.824;7.134;2023-08-06T04:46:45;14.70;99.90
20068;DHT22;10194;50.824;7.134;2023-08-06T04:49:10;14.70;99.90
20068;DHT22;10194;50.824;7.134;2023-08-06T04:51:36;14.70;99.90
20068;DHT22;10194;50.824;7.134;2023-08-06T04:54:02;14.80;99.90
20068;DHT22;10194;50.824;7.134;2023-08-06T04:56:28;14.70;99.90
20068;DHT22;10194;50.824;7.134;2023-08-06T04:58:54;14.80;99.90
20068;DHT22;10194;50.824;7.134;2023-08-06T05:01:20;14.70;99.90
20068;DHT22;10194;50.824;7.134;2023-08-06T05:03:47;14.70;99.90
20068;DHT22;10194;50.824;7.134;2023-08-06T05:06:13;14.80;99.90
20068;DHT22;10194;50.824;7.134;2023-08-06T05:08:39;14.80;99.90
20068;DHT22;10194;50.824;7.134;2023-08-06T05:11:04;14.70;99.90
20068;DHT22;10194;50.824;7.134;2023-08-06T05:13:30;14.80;99.90
20068;DHT22;10194;50.824;7.134;2023-08-06T05:15:56;14.80;99.90
20068;DHT22;10194;50.824;7.134;2023-08-06T05:18:22;14.90;99.90
20068;DHT22;10194;50.824;7.134;2023-08-06T05:20:48;15.00;99.90
20068;DHT22;10194;50.824;7.134;2023-08-06T05:23:13;14.90;99.90
20068;DHT22;10194;50.824;7.134;2023-08-06T05:25:39;15.00;99.90
20068;DHT22;10194;50.824;7.134;2023-08-06T05:28:05;15.00;99.90
20068;DHT22;10194;50.824;7.134;2023-08-06T05:30:31;15.10;99.90
20068;DHT22;10194;50.824;7.134;2023-08-06T05:32:57;15.00;99.90
20068;DHT22;10194;50.824;7.134;2023-08-06T05:35:23;15.00;99.90
20068;DHT22;10194;50.824;7.134;2023-08-06T05:37:50;15.10;99.90
20068;DHT22;10194;50.824;7.134;2023-08-06T05:40:16;15.00;99.90
20068;DHT22;10194;50.824;7.134;2023-08-06T05:42:42;15.00;99.90
20068;DHT22;10194;50.824;7.134;2023-08-06T05:45:08;15.10;99.90
20068;DHT22;10194;50.824;7.134;2023-08-06T05:47:35;15.10;99.90
20068;DHT22;10194;50.824;7.134;2023-08-06T05:50:00;15.30;99.90
20068;DHT22;10194;50.824;7.134;2023-08-06T05:52:26;15.40;99.90
20068;DHT22;10194;50.824;7.134;2023-08-06T05:54:52;15.40;99.90
20068;DHT22;10194;50.824;7.134;2023-08-06T05:57:18;15.50;99.90
20068;DHT22;10194;50.824;7.134;2023-08-06T05:59:43;15.60;99.90
20068;DHT22;10194;50.824;7.134;2023-08-06T06:02:09;15.70;99.90
20068;DHT22;10194;50.824;7.134;2023-08-06T06:04:35;15.70;99.90
20068;DHT22;10194;50.824;7.134;2023-08-06T06:07:01;15.70;99.90
20068;DHT22;10194;50.824;7.134;2023-08-06T06:09:26;15.70;99.90
20068;DHT22;10194;50.824;7.134;2023-08-06T06:11:52;15.70;99.90
20068;DHT22;10194;50.824;7.134;2023-08-06T06:14:19;15.70;99.90
20068;DHT22;10194;50.824;7.134;2023-08-06T06:16:45;15.70;99.90
20068;DHT22;10194;50.824;7.134;2023-08-06T06:19:11;15.60;99.90
20068;DHT22;10194;50.824;7.134;2023-08-06T06:21:38;15.60;99.90
20068;DHT22;10194;50.824;7.134;2023-08-06T06:24:06;15.70;99.90
20068;DHT22;10194;50.824;7.134;2023-08-06T06:26:33;15.70;99.90
20068;DHT22;10194;50.824;7.134;2023-08-06T06:28:59;15.70;99.90
20068;DHT22;10194;50.824;7.134;2023-08-06T06:31:25;15.70;99.90
20068;DHT22;10194;50.824;7.134;2023-08-06T06:33:51;15.80;99.90
20068;DHT22;10194;50.824;7.134;2023-08-06T06:36:18;15.90;99.90
20068;DHT22;10194;50.824;7.134;2023-08-06T06:38:44;15.80;99.90
20068;DHT22;10194;50.824;7.134;2023-08-06T06:41:10;15.80;99.90
20068;DHT22;10194;50.824;7.134;2023-08-06T06:43:35;15.90;99.90
20068;DHT22;10194;50.824;7.134;2023-08-06T06:46:03;15.80;99.90
20068;DHT22;10194;50.824;7.134;2023-08-06T06:48:31;15.90;99.90
20068;DHT22;10194;50.824;7.134;2023-08-06T06:50:57;15.90;99.90
20068;DHT22;10194;50.824;7.134;2023-08-06T06:53:23;15.90;99.90
20068;DHT22;10194;50.824;7.134;2023-08-06T06:55:54;15.90;99.90
20068;DHT22;10194;50.824;7.134;2023-08-06T06:58:20;15.80;99.90
20068;DHT22;10194;50.824;7.134;2023-08-06T07:00:47;15.80;99.90
20068;DHT22;10194;50.824;7.134;2023-08-06T07:03:16;15.70;99.90
20068;DHT22;10194;50.824;7.134;2023-08-06T07:05:43;15.70;99.90
20068;DHT22;10194;50.824;7.134;2023-08-06T07:08:09;15.70;99.90
20068;DHT22;10194;50.824;7.134;2023-08-06T07:10:35;15.70;99.90
20068;DHT22;10194;50.824;7.134;2023-08-06T07:13:01;15.70;99.90
20068;DHT22;10194;50.824;7.134;2023-08-06T07:15:27;15.60;99.90
20068;DHT22;10194;50.824;7.134;2023-08-06T07:17:53;15.60;99.90
20068;DHT22;10194;50.824;7.134;2023-08-06T07:20:18;15.60;99.90
20068;DHT22;10194;50.824;7.134;2023-08-06T07:22:44;15.60;99.90
20068;DHT22;10194;50.824;7.134;2023-08-06T07:25:10;15.60;99.90
20068;DHT22;10194;50.824;7.134;2023-08-06T07:27:36;15.60;99.90
20068;DHT22;10194;50.824;7.134;2023-08-06T07:30:02;15.60;99.90
20068;DHT22;10194;50.824;7.134;2023-08-06T07:32:28;15.70;99.90
20068;DHT22;10194;50.824;7.134;2023-08-06T07:34:54;15.70;99.90
20068;DHT22;10194;50.824;7.134;2023-08-06T07:37:24;15.70;99.90
20068;DHT22;10194;50.824;7.134;2023-08-06T07:39:50;15.70;99.90
20068;DHT22;10194;50.824;7.134;2023-08-06T07:42:16;15.70;99.90
20068;DHT22;10194;50.824;7.134;2023-08-06T07:44:42;15.80;99.90
20068;DHT22;10194;50.824;7.134;2023-08-06T07:47:07;15.70;99.90
20068;DHT22;10194;50.824;7.134;2023-08-06T07:49:33;15.70;99.90
20068;DHT22;10194;50.824;7.134;2023-08-06T07:51:59;15.70;99.90
20068;DHT22;10194;50.824;7.134;2023-08-06T07:54:26;15.70;99.90
20068;DHT22;10194;50.824;7.134;2023-08-06T07:56:51;15.80;99.90
20068;DHT22;10194;50.824;7.134;2023-08-06T07:59:17;15.90;99.90
20068;DHT22;10194;50.824;7.134;2023-08-06T08:01:43;15.90;99.90
20068;DHT22;10194;50.824;7.134;2023-08-06T08:04:09;15.90;99.90
20068;DHT22;10194;50.824;7.134;2023-08-06T08:06:34;16.00;99.90
20068;DHT22;10194;50.824;7.134;2023-08-06T08:09:00;16.10;99.90
20068;DHT22;10194;50.824;7.134;2023-08-06T08:11:26;16.00;99.90
20068;DHT22;10194;50.824;7.134;2023-08-06T08:13:52;15.90;99.90
20068;DHT22;10194;50.824;7.134;2023-08-06T08:16:17;15.90;99.90
20068;DHT22;10194;50.824;7.134;2023-08-06T08:18:43;15.90;99.90
20068;DHT22;10194;50.824;7.134;2023-08-06T08:21:09;16.00;99.90
20068;DHT22;10194;50.824;7.134;2023-08-06T08:23:35;16.10;99.90
20068;DHT22;10194;50.824;7.134;2023-08-06T08:26:01;16.10;99.90
20068;DHT22;10194;50.824;7.134;2023-08-06T08:28:27;16.20;99.90
20068;DHT22;10194;50.824;7.134;2023-08-06T08:30:53;16.20;99.90
20068;DHT22;10194;50.824;7.134;2023-08-06T08:33:19;16.30;99.90
20068;DHT22;10194;50.824;7.134;2023-08-06T08:35:45;16.40;99.90
20068;DHT22;10194;50.824;7.134;2023-08-06T08:38:11;16.60;99.90
20068;DHT22;10194;50.824;7.134;2023-08-06T08:40:42;16.70;99.90
20068;DHT22;10194;50.824;7.134;2023-08-06T08:43:14;16.60;99.90
20068;DHT22;10194;50.824;7.134;2023-08-06T08:45:42;16.60;99.90
20068;DHT22;10194;50.824;7.134;2023-08-06T08:48:12;16.60;99.90
20068;DHT22;10194;50.824;7.134;2023-08-06T08:50:40;16.50;99.90
20068;DHT22;10194;50.824;7.134;2023-08-06T08:53:06;16.50;99.90
20068;DHT22;10194;50.824;7.134;2023-08-06T08:55:33;16.60;99.90
20068;DHT22;10194;50.824;7.134;2023-08-06T08:57:59;16.60;99.90
20068;DHT22;10194;50.824;7.134;2023-08-06T09:00:25;16.60;99.90
20068;DHT22;10194;50.824;7.134;2023-08-06T09:02:51;16.40;99.90
20068;DHT22;10194;50.824;7.134;2023-08-06T09:05:18;16.40;99.90
20068;DHT22;10194;50.824;7.134;2023-08-06T09:07:48;16.30;99.90
20068;DHT22;10194;50.824;7.134;2023-08-06T09:10:16;16.40;99.90
20068;DHT22;10194;50.824;7.134;2023-08-06T09:12:47;16.30;99.90
20068;DHT22;10194;50.824;7.134;2023-08-06T09:15:13;16.40;99.90
20068;DHT22;10194;50.824;7.134;2023-08-06T09:17:39;16.40;99.90
20068;DHT22;10194;50.824;7.134;2023-08-06T09:20:23;16.50;99.90
20068;DHT22;10194;50.824;7.134;2023-08-06T09:22:49;16.40;99.90
20068;DHT22;10194;50.824;7.134;2023-08-06T09:25:22;16.40;99.90
20068;DHT22;10194;50.824;7.134;2023-08-06T09:27:51;16.40;99.90
20068;DHT22;10194;50.824;7.134;2023-08-06T09:30:30;16.40;99.90
20068;DHT22;10194;50.824;7.134;2023-08-06T09:32:58;16.40;99.90
20068;DHT22;10194;50.824;7.134;2023-08-06T09:35:24;16.40;99.90
20068;DHT22;10194;50.824;7.134;2023-08-06T09:37:50;16.60;99.90
20068;DHT22;10194;50.824;7.134;2023-08-06T09:40:45;16.70;99.90
20068;DHT22;10194;50.824;7.134;2023-08-06T09:43:11;16.70;99.90
20068;DHT22;10194;50.824;7.134;2023-08-06T09:45:38;16.70;99.90
20068;DHT22;10194;50.824;7.134;2023-08-06T09:48:08;16.70;99.90
20068;DHT22;10194;50.824;7.134;2023-08-06T09:50:36;17.10;99.90
20068;DHT22;10194;50.824;7.134;2023-08-06T09:53:07;17.50;99.90
20068;DHT22;10194;50.824;7.134;2023-08-06T09:55:34;17.60;99.90
20068;DHT22;10194;50.824;7.134;2023-08-06T09:58:00;17.40;99.90
20068;DHT22;10194;50.824;7.134;2023-08-06T10:00:27;17.00;99.90
20068;DHT22;10194;50.824;7.134;2023-08-06T10:02:54;16.70;99.90
20068;DHT22;10194;50.824;7.134;2023-08-06T10:05:22;16.50;99.90
20068;DHT22;10194;50.824;7.134;2023-08-06T10:07:49;16.40;99.90
20068;DHT22;10194;50.824;7.134;2023-08-06T10:10:18;16.30;99.90
20068;DHT22;10194;50.824;7.134;2023-08-06T10:12:50;16.30;99.90
20068;DHT22;10194;50.824;7.134;2023-08-06T10:15:22;16.30;99.90
20068;DHT22;10194;50.824;7.134;2023-08-06T10:17:52;16.30;99.90
20068;DHT22;10194;50.824;7.134;2023-08-06T10:20:21;16.30;99.90
20068;DHT22;10194;50.824;7.134;2023-08-06T10:23:03;16.30;99.90
20068;DHT22;10194;50.824;7.134;2023-08-06T10:25:34;16.20;99.90
20068;DHT22;10194;50.824;7.134;2023-08-06T10:28:07;16.20;99.90
20068;DHT22;10194;50.824;7.134;2023-08-06T10:30:41;16.00;99.90
20068;DHT22;10194;50.824;7.134;2023-08-06T10:33:08;16.00;99.90
20068;DHT22;10194;50.824;7.134;2023-08-06T10:35:48;15.70;99.90
20068;DHT22;10194;50.824;7.134;2023-08-06T10:38:21;15.50;99.90
20068;DHT22;10194;50.824;7.134;2023-08-06T10:41:00;15.10;99.90
20068;DHT22;10194;50.824;7.134;2023-08-06T10:43:33;15.10;99.90
20068;DHT22;10194;50.824;7.134;2023-08-06T10:46:03;15.00;99.90
20068;DHT22;10194;50.824;7.134;2023-08-06T10:48:41;15.00;99.90
20068;DHT22;10194;50.824;7.134;2023-08-06T10:51:12;14.80;99.90
20068;DHT22;10194;50.824;7.134;2023-08-06T10:53:42;14.70;99.90
20068;DHT22;10194;50.824;7.134;2023-08-06T10:56:13;14.80;99.90
20068;DHT22;10194;50.824;7.134;2023-08-06T10:58:44;14.80;99.90
20068;DHT22;10194;50.824;7.134;2023-08-06T11:01:11;14.90;99.90
20068;DHT22;10194;50.824;7.134;2023-08-06T11:03:38;14.80;99.90
20068;DHT22;10194;50.824;7.134;2023-08-06T11:06:07;14.80;99.90
20068;DHT22;10194;50.824;7.134;2023-08-06T11:08:34;14.80;99.90
20068;DHT22;10194;50.824;7.134;2023-08-06T11:11:12;14.70;99.90
20068;DHT22;10194;50.824;7.134;2023-08-06T11:13:41;14.70;99.90
20068;DHT22;10194;50.824;7.134;2023-08-06T11:16:10;14.80;99.90
20068;DHT22;10194;50.824;7.134;2023-08-06T11:18:45;14.70;99.90
20068;DHT22;10194;50.824;7.134;2023-08-06T11:21:11;14.70;99.90
20068;DHT22;10194;50.824;7.134;2023-08-06T11:23:37;14.70;99.90
20068;DHT22;10194;50.824;7.134;2023-08-06T11:26:04;14.70;99.90
20068;DHT22;10194;50.824;7.134;2023-08-06T11:28:33;14.70;99.90
20068;DHT22;10194;50.824;7.134;2023-08-06T11:30:59;14.60;99.90
20068;DHT22;10194;50.824;7.134;2023-08-06T11:33:28;14.60;99.90
20068;DHT22;10194;50.824;7.134;2023-08-06T11:35:55;14.70;99.90
20068;DHT22;10194;50.824;7.134;2023-08-06T11:38:24;14.70;99.90
20068;DHT22;10194;50.824;7.134;2023-08-06T11:40:54;14.70;99.90
20068;DHT22;10194;50.824;7.134;2023-08-06T11:43:20;14.70;99.90
20068;DHT22;10194;50.824;7.134;2023-08-06T11:45:48;14.60;99.90
20068;DHT22;10194;50.824;7.134;2023-08-06T11:48:16;14.60;99.90
20068;DHT22;10194;50.824;7.134;2023-08-06T11:50:45;14.60;99.90
20068;DHT22;10194;50.824;7.134;2023-08-06T11:53:14;14.70;99.90
20068;DHT22;10194;50.824;7.134;2023-08-06T11:55:40;14.70;99.90
20068;DHT22;10194;50.824;7.134;2023-08-06T11:58:08;14.90;99.90
20068;DHT22;10194;50.824;7.134;2023-08-06T12:00:36;15.00;99.90
20068;DHT22;10194;50.824;7.134;2023-08-06T12:03:04;15.00;99.90
20068;DHT22;10194;50.824;7.134;2023-08-06T12:05:31;15.00;99.90
20068;DHT22;10194;50.824;7.134;2023-08-06T12:08:00;15.10;99.90
20068;DHT22;10194;50.824;7.134;2023-08-06T12:10:29;15.10;99.90
20068;DHT22;10194;50.824;7.134;2023-08-06T12:12:55;15.00;99.90
20068;DHT22;10194;50.824;7.134;2023-08-06T12:15:22;15.00;99.90
20068;DHT22;10194;50.824;7.134;2023-08-06T12:17:49;15.10;99.90
20068;DHT22;10194;50.824;7.134;2023-08-06T12:20:15;15.20;99.90
20068;DHT22;10194;50.824;7.134;2023-08-06T12:22:41;15.20;99.90
20068;DHT22;10194;50.824;7.134;2023-08-06T12:25:10;15.20;99.90
20068;DHT22;10194;50.824;7.134;2023-08-06T12:27:39;15.20;99.90
20068;DHT22;10194;50.824;7.134;2023-08-06T12:30:07;15.20;99.90
20068;DHT22;10194;50.824;7.134;2023-08-06T12:32:34;15.20;99.90
20068;DHT22;10194;50.824;7.134;2023-08-06T12:35:00;15.30;99.90
20068;DHT22;10194;50.824;7.134;2023-08-06T12:37:26;15.30;99.90
20068;DHT22;10194;50.824;7.134;2023-08-06T12:39:53;15.30;99.90
20068;DHT22;10194;50.824;7.134;2023-08-06T12:42:19;15.30;99.90
20068;DHT22;10194;50.824;7.134;2023-08-06T12:44:44;15.30;99.90
20068;DHT22;10194;50.824;7.134;2023-08-06T12:47:11;15.40;99.90
20068;DHT22;10194;50.824;7.134;2023-08-06T12:49:36;15.40;99.90
20068;DHT22;10194;50.824;7.134;2023-08-06T12:52:02;15.30;99.90
20068;DHT22;10194;50.824;7.134;2023-08-06T12:54:31;15.40;99.90
20068;DHT22;10194;50.824;7.134;2023-08-06T12:57:03;15.30;99.90
20068;DHT22;10194;50.824;7.134;2023-08-06T12:59:29;15.20;99.90
20068;DHT22;10194;50.824;7.134;2023-08-06T13:01:55;15.20;99.90
20068;DHT22;10194;50.824;7.134;2023-08-06T13:04:21;15.30;99.90
20068;DHT22;10194;50.824;7.134;2023-08-06T13:06:46;15.20;99.90
20068;DHT22;10194;50.824;7.134;2023-08-06T13:09:16;15.20;99.90
20068;DHT22;10194;50.824;7.134;2023-08-06T13:11:43;15.10;99.90
20068;DHT22;10194;50.824;7.134;2023-08-06T13:14:13;15.10;99.90
20068;DHT22;10194;50.824;7.134;2023-08-06T13:16:40;15.00;99.90
20068;DHT22;10194;50.824;7.134;2023-08-06T13:19:07;15.00;99.90
20068;DHT22;10194;50.824;7.134;2023-08-06T13:21:34;14.90;99.90
20068;DHT22;10194;50.824;7.134;2023-08-06T13:24:01;14.80;99.90
20068;DHT22;10194;50.824;7.134;2023-08-06T13:26:30;14.80;99.90
20068;DHT22;10194;50.824;7.134;2023-08-06T13:29:00;14.80;99.90
20068;DHT22;10194;50.824;7.134;2023-08-06T13:31:27;14.70;99.90
20068;DHT22;10194;50.824;7.134;2023-08-06T13:33:56;14.80;99.90
20068;DHT22;10194;50.824;7.134;2023-08-06T13:36:26;14.80;99.90
20068;DHT22;10194;50.824;7.134;2023-08-06T13:38:52;14.80;99.90
20068;DHT22;10194;50.824;7.134;2023-08-06T13:41:19;14.90;99.90
20068;DHT22;10194;50.824;7.134;2023-08-06T13:43:45;14.90;99.90
20068;DHT22;10194;50.824;7.134;2023-08-06T13:46:11;15.00;99.90
20068;DHT22;10194;50.824;7.134;2023-08-06T13:48:45;14.90;99.90
20068;DHT22;10194;50.824;7.134;2023-08-06T13:51:12;14.90;99.90
20068;DHT22;10194;50.824;7.134;2023-08-06T13:53:39;14.90;99.90
20068;DHT22;10194;50.824;7.134;2023-08-06T13:56:06;14.90;99.90
20068;DHT22;10194;50.824;7.134;2023-08-06T13:58:33;15.00;99.90
20068;DHT22;10194;50.824;7.134;2023-08-06T14:00:59;14.90;99.90
20068;DHT22;10194;50.824;7.134;2023-08-06T14:03:25;14.90;99.90
20068;DHT22;10194;50.824;7.134;2023-08-06T14:05:51;15.00;99.90
20068;DHT22;10194;50.824;7.134;2023-08-06T14:08:17;15.00;99.90
20068;DHT22;10194;50.824;7.134;2023-08-06T14:10:45;15.10;99.90
20068;DHT22;10194;50.824;7.134;2023-08-06T14:13:11;15.20;99.90
20068;DHT22;10194;50.824;7.134;2023-08-06T14:15:38;15.20;99.90
20068;DHT22;10194;50.824;7.134;2023-08-06T14:18:14;15.10;99.90
20068;DHT22;10194;50.824;7.134;2023-08-06T14:20:41;15.10;99.90
20068;DHT22;10194;50.824;7.134;2023-08-06T14:23:07;15.10;99.90
20068;DHT22;10194;50.824;7.134;2023-08-06T14:25:33;15.10;99.90
20068;DHT22;10194;50.824;7.134;2023-08-06T14:27:59;15.10;99.90
20068;DHT22;10194;50.824;7.134;2023-08-06T14:30:25;15.10;99.90
20068;DHT22;10194;50.824;7.134;2023-08-06T14:32:51;15.10;99.90
20068;DHT22;10194;50.824;7.134;2023-08-06T14:35:16;15.20;99.90
20068;DHT22;10194;50.824;7.134;2023-08-06T14:37:42;15.20;99.90
20068;DHT22;10194;50.824;7.134;2023-08-06T14:40:09;15.20;99.90
20068;DHT22;10194;50.824;7.134;2023-08-06T14:42:35;15.40;99.90
20068;DHT22;10194;50.824;7.134;2023-08-06T14:45:02;15.50;99.90
20068;DHT22;10194;50.824;7.134;2023-08-06T14:47:27;15.70;99.90
20068;DHT22;10194;50.824;7.134;2023-08-06T14:49:53;15.70;99.90
20068;DHT22;10194;50.824;7.134;2023-08-06T14:52:19;15.70;99.90
20068;DHT22;10194;50.824;7.134;2023-08-06T14:54:45;15.60;99.90
20068;DHT22;10194;50.824;7.134;2023-08-06T14:57:10;15.60;99.90
20068;DHT22;10194;50.824;7.134;2023-08-06T14:59:38;15.50;99.90
20068;DHT22;10194;50.824;7.134;2023-08-06T15:02:04;15.50;99.90
20068;DHT22;10194;50.824;7.134;2023-08-06T15:04:31;15.40;99.90
20068;DHT22;10194;50.824;7.134;2023-08-06T15:06:56;15.40;99.90
20068;DHT22;10194;50.824;7.134;2023-08-06T15:09:22;15.40;99.90
20068;DHT22;10194;50.824;7.134;2023-08-06T15:11:48;15.40;99.90
20068;DHT22;10194;50.824;7.134;2023-08-06T15:14:24;15.40;99.90
20068;DHT22;10194;50.824;7.134;2023-08-06T15:16:51;15.50;99.90
20068;DHT22;10194;50.824;7.134;2023-08-06T15:19:17;15.60;99.90
20068;DHT22;10194;50.824;7.134;2023-08-06T15:21:42;15.70;99.90
20068;DHT22;10194;50.824;7.134;2023-08-06T15:24:09;15.80;99.90
20068;DHT22;10194;50.824;7.134;2023-08-06T15:26:34;15.90;99.90
20068;DHT22;10194;50.824;7.134;2023-08-06T15:29:00;15.90;99.90
20068;DHT22;10194;50.824;7.134;2023-08-06T15:31:38;15.90;99.90
20068;DHT22;10194;50.824;7.134;2023-08-06T15:34:06;15.90;99.90
20068;DHT22;10194;50.824;7.134;2023-08-06T15:36:33;15.90;99.90